createdAt,value
2023-04-23T00:02:04.179Z,1.72
2023-04-23T00:07:27.062Z,1.75
2023-04-23T00:12:49.885Z,1.46
2023-04-23T00:18:12.669Z,1.46
2023-04-23T00:23:34.745Z,1.53
2023-04-23T00:28:57.334Z,1.26
2023-04-23T00:34:19.795Z,1.40
2023-04-23T00:39:42.376Z,1.38
2023-04-23T00:45:05.420Z,1.23
2023-04-23T00:50:27.364Z,1.28
2023-04-23T00:55:49.683Z,1.24
2023-04-23T01:01:13.086Z,1.14
2023-04-23T01:06:35.541Z,1.03
2023-04-23T01:11:58.871Z,1.01
2023-04-23T01:17:22.016Z,1.06
2023-04-23T01:22:44.580Z,0.98
2023-04-23T01:28:10.453Z,1.03
2023-04-23T01:33:34.391Z,1.04
2023-04-23T01:38:57.373Z,0.90
2023-04-23T01:44:20.210Z,0.90
2023-04-23T01:49:42.487Z,0.91
2023-04-23T01:55:06.093Z,0.81
2023-04-23T02:00:28.817Z,0.68
2023-04-23T02:05:51.848Z,0.70
2023-04-23T02:11:14.227Z,0.62
2023-04-23T02:16:37.352Z,0.70
2023-04-23T02:21:59.919Z,0.84
2023-04-23T02:27:22.971Z,0.97
2023-04-23T02:32:45.976Z,0.81
2023-04-23T02:38:08.246Z,0.84
2023-04-23T02:43:30.398Z,1.17
2023-04-23T02:48:53.127Z,1.19
2023-04-23T02:54:17.694Z,1.35
2023-04-23T02:59:40.337Z,1.40
2023-04-23T03:05:05.570Z,1.56
2023-04-23T03:10:27.792Z,1.67
2023-04-23T03:15:51.458Z,1.93
2023-04-23T03:21:14.128Z,2.16
2023-04-23T03:26:37.212Z,2.39
2023-04-23T03:32:02.656Z,2.57
2023-04-23T03:37:26.265Z,2.90
2023-04-23T03:42:50.013Z,3.28
2023-04-23T03:48:16.665Z,3.53
2023-04-23T03:53:38.669Z,3.95
2023-04-23T03:59:19.107Z,4.00
2023-04-23T04:04:46.993Z,4.37
2023-04-23T04:10:12.047Z,4.60
2023-04-23T04:15:33.901Z,5.16
2023-04-23T04:20:56.286Z,5.91
2023-04-23T04:26:18.049Z,6.81
2023-04-23T04:31:40.014Z,8.09
2023-04-23T04:37:02.090Z,8.87
2023-04-23T04:42:25.999Z,9.56
2023-04-23T04:47:47.744Z,10.11
2023-04-23T04:53:09.700Z,10.57
2023-04-23T04:59:22.043Z,11.48
2023-04-23T05:04:44.717Z,12.18
2023-04-23T05:10:06.929Z,12.87
2023-04-23T05:15:32.060Z,13.32
2023-04-23T05:20:53.840Z,13.74
2023-04-23T05:26:15.929Z,14.32
2023-04-23T05:31:38.363Z,14.74
2023-04-23T05:37:00.088Z,15.08
2023-04-23T05:42:24.764Z,15.55
2023-04-23T05:47:46.802Z,16.11
2023-04-23T05:53:12.554Z,16.36
2023-04-23T05:58:34.440Z,16.99
2023-04-23T06:03:56.963Z,17.16
2023-04-23T06:09:19.112Z,17.52
2023-04-23T06:14:41.559Z,17.46
2023-04-23T06:20:05.565Z,17.70
2023-04-23T06:25:27.401Z,17.85
2023-04-23T06:30:49.791Z,17.99
2023-04-23T06:36:12.136Z,18.25
2023-04-23T06:41:35.056Z,18.37
2023-04-23T06:47:08.778Z,18.05
2023-04-23T06:52:31.101Z,18.17
2023-04-23T06:57:59.585Z,18.17
2023-04-23T07:03:23.190Z,17.91
2023-04-23T07:08:47.263Z,18.00
2023-04-23T07:14:12.981Z,18.57
2023-04-23T07:19:36.473Z,18.59
2023-04-23T07:24:59.636Z,18.64
2023-04-23T07:30:23.673Z,18.65
2023-04-23T07:35:48.677Z,18.62
2023-04-23T07:41:11.046Z,18.85
2023-04-23T07:46:34.700Z,18.82
2023-04-23T07:51:58.562Z,18.53
2023-04-23T08:03:05.292Z,19.91
2023-04-23T08:08:31.245Z,19.25
2023-04-23T08:20:30.709Z,18.36
2023-04-23T08:25:57.282Z,18.53
2023-04-23T08:31:26.617Z,18.17
2023-04-23T08:36:54.526Z,18.14
2023-04-23T08:42:39.871Z,18.49
2023-04-23T08:48:08.206Z,18.39
2023-04-23T08:53:34.644Z,18.19
2023-04-23T08:59:01.301Z,18.09
2023-04-23T09:04:29.558Z,18.08
2023-04-23T09:09:55.109Z,18.36
2023-04-23T09:15:19.246Z,18.13
2023-04-23T09:20:46.505Z,17.81
2023-04-23T09:26:11.996Z,18.24
2023-04-23T09:31:35.346Z,18.08
2023-04-23T09:37:01.592Z,18.32
2023-04-23T09:42:26.778Z,18.01
2023-04-23T09:47:53.372Z,18.25
2023-04-23T09:53:31.530Z,18.35
2023-04-23T09:58:56.756Z,18.32
2023-04-23T10:04:23.070Z,17.96
2023-04-23T10:09:56.624Z,18.22
2023-04-23T10:15:23.055Z,18.35
2023-04-23T10:20:51.000Z,18.64
2023-04-23T10:26:17.316Z,18.94
2023-04-23T10:31:50.872Z,18.81
2023-04-23T10:37:19.904Z,18.74
2023-04-23T10:42:46.734Z,18.98
2023-04-23T10:48:09.996Z,19.05
2023-04-23T10:53:32.796Z,18.91
2023-04-23T10:58:55.247Z,19.15
2023-04-23T11:04:23.427Z,19.23
2023-04-23T11:09:50.315Z,18.81
2023-04-23T11:15:17.246Z,18.78
2023-04-23T11:20:39.413Z,19.10
2023-04-23T11:26:02.432Z,18.79
2023-04-23T11:37:21.494Z,19.49
2023-04-23T11:42:48.213Z,19.45
2023-04-23T11:48:11.211Z,19.42
2023-04-23T11:53:56.911Z,19.55
2023-04-23T11:59:22.294Z,19.54
2023-04-23T12:04:44.836Z,19.62
2023-04-23T12:10:07.743Z,19.59
2023-04-23T12:15:30.043Z,19.49
2023-04-23T12:20:52.050Z,19.75
2023-04-23T12:26:18.243Z,19.77
2023-04-23T12:31:40.428Z,19.69
2023-04-23T12:37:07.500Z,19.77
2023-04-23T12:42:30.050Z,19.77
2023-04-23T12:47:55.482Z,19.64
2023-04-23T12:53:30.453Z,19.48
2023-04-23T12:58:52.465Z,19.49
2023-04-23T13:04:16.348Z,19.58
2023-04-23T13:09:38.283Z,19.40
2023-04-23T13:15:00.666Z,19.26
2023-04-23T13:20:23.887Z,19.25
2023-04-23T13:25:45.909Z,19.39
2023-04-23T13:31:12.553Z,19.45
2023-04-23T13:36:39.006Z,19.56
2023-04-23T13:42:09.440Z,19.43
2023-04-23T13:47:40.212Z,19.22
2023-04-23T13:53:05.706Z,19.15
2023-04-23T14:04:51.275Z,19.39
2023-04-23T14:10:32.771Z,19.14
2023-04-23T14:15:56.096Z,19.07
2023-04-23T14:21:41.226Z,19.22
2023-04-23T14:38:39.804Z,18.82
2023-04-23T14:44:27.842Z,18.80
2023-04-23T14:55:37.301Z,18.65
2023-04-23T15:01:01.305Z,18.66
2023-04-23T15:06:23.676Z,18.47
2023-04-23T15:11:46.180Z,18.36
2023-04-23T15:17:08.641Z,18.30
2023-04-23T15:22:34.145Z,18.24
2023-04-23T15:28:16.706Z,18.13
2023-04-23T15:33:39.341Z,17.99
2023-04-23T15:39:01.625Z,17.74
2023-04-23T15:44:25.568Z,17.61
2023-04-23T15:49:47.588Z,17.39
2023-04-23T15:55:09.986Z,17.33
2023-04-23T16:00:34.133Z,17.08
2023-04-23T16:05:56.304Z,16.71
2023-04-23T16:11:19.492Z,16.49
2023-04-23T16:16:42.712Z,16.17
2023-04-23T16:22:05.503Z,15.80
2023-04-23T16:27:28.913Z,15.50
2023-04-23T16:32:51.935Z,15.27
2023-04-23T16:38:16.025Z,14.91
2023-04-23T16:43:39.583Z,14.73
2023-04-23T16:49:03.090Z,14.45
2023-04-23T16:54:25.619Z,14.24
2023-04-23T16:59:49.135Z,13.97
2023-04-23T17:05:39.391Z,13.84
2023-04-23T17:53:12.980Z,11.57
2023-04-23T17:58:36.046Z,11.76
2023-04-23T18:04:00.887Z,11.57
2023-04-23T18:09:24.509Z,11.38
2023-04-23T18:14:47.225Z,11.23
2023-04-23T18:20:10.607Z,11.13
2023-04-23T18:25:34.019Z,10.99
2023-04-23T18:31:02.916Z,10.80
2023-04-23T18:36:34.168Z,10.64
2023-04-23T18:41:58.980Z,10.52
2023-04-23T18:47:29.648Z,10.27
2023-04-23T18:52:52.065Z,10.15
2023-04-23T18:58:14.741Z,9.95
2023-04-23T19:03:37.730Z,9.69
2023-04-23T19:09:00.949Z,9.65
2023-04-23T19:14:24.218Z,9.57
2023-04-23T19:19:49.239Z,9.50
2023-04-23T19:25:13.097Z,9.45
2023-04-23T19:30:35.743Z,9.20
2023-04-23T19:35:59.499Z,8.96
2023-04-23T19:41:22.913Z,8.84
2023-04-23T19:46:45.387Z,8.72
2023-04-23T19:52:09.738Z,8.64
2023-04-23T19:57:31.801Z,8.54
2023-04-23T20:02:56.149Z,8.41
2023-04-23T20:08:26.463Z,8.27
2023-04-23T20:13:49.734Z,8.22
2023-04-23T20:19:13.934Z,8.15
2023-04-23T20:24:39.204Z,8.05
2023-04-23T20:30:02.092Z,7.94
2023-04-23T20:35:26.681Z,7.85
2023-04-23T20:40:50.673Z,7.76
2023-04-23T20:46:13.511Z,7.70
2023-04-23T20:51:36.686Z,7.59
2023-04-23T20:56:59.386Z,7.47
2023-04-23T21:02:21.918Z,7.48
2023-04-23T21:07:45.585Z,7.27
2023-04-23T21:13:11.137Z,7.12
2023-04-23T21:18:34.187Z,7.23
2023-04-23T21:23:57.345Z,7.10
2023-04-23T21:29:20.150Z,6.97
2023-04-23T21:34:42.430Z,6.95
2023-04-23T21:40:05.810Z,6.88
2023-04-23T21:45:28.772Z,6.74
2023-04-23T21:50:52.556Z,6.66
2023-04-23T21:56:15.769Z,6.68
2023-04-23T22:01:38.411Z,6.64
2023-04-23T22:07:03.070Z,6.56
2023-04-23T22:12:26.348Z,6.47
2023-04-23T22:17:51.231Z,6.38
2023-04-23T22:23:14.105Z,6.23
2023-04-23T22:28:36.350Z,6.15
2023-04-23T22:33:59.069Z,6.07
2023-04-23T22:39:21.322Z,5.97
2023-04-23T22:44:44.282Z,5.92
2023-04-23T22:50:07.762Z,5.87
2023-04-23T22:55:30.614Z,5.82
2023-04-23T23:00:53.015Z,5.80
2023-04-23T23:06:15.947Z,5.72
2023-04-23T23:11:38.330Z,5.57
2023-04-23T23:17:00.732Z,5.57
2023-04-23T23:22:22.970Z,5.52
2023-04-23T23:27:46.171Z,5.41
2023-04-23T23:33:08.028Z,5.32
2023-04-23T23:38:30.471Z,5.37
2023-04-23T23:43:53.405Z,5.39
2023-04-23T23:49:16.082Z,5.15
2023-04-23T23:54:38.540Z,5.01
